sensor_id;sensor_type;location;lat;lon;timestamp;temperature;humidity
68026;SHT31;54819;48.030;14.710;2022-11-04T00:00:34;10.38;83.53
68026;SHT31;54819;48.030;14.710;2022-11-04T00:03:01;10.39;83.67
68026;SHT31;54819;48.030;14.710;2022-11-04T00:05:28;10.42;83.74
68026;SHT31;54819;48.030;14.710;2022-11-04T00:07:54;10.45;83.81
68026;SHT31;54819;48.030;14.710;2022-11-04T00:10:40;10.49;83.90
68026;SHT31;54819;48.030;14.710;2022-11-04T00:13:28;10.52;83.84
68026;SHT31;54819;48.030;14.710;2022-11-04T00:15:59;10.52;83.77
68026;SHT31;54819;48.030;14.710;2022-11-04T00:18:45;10.52;83.67
68026;SHT31;54819;48.030;14.710;2022-11-04T00:21:12;10.52;83.60
68026;SHT31;54819;48.030;14.710;2022-11-04T00:23:58;10.51;83.53
68026;SHT31;54819;48.030;14.710;2022-11-04T00:26:44;10.50;83.56
68026;SHT31;54819;48.030;14.710;2022-11-04T00:29:29;10.50;83.73
68026;SHT31;54819;48.030;14.710;2022-11-04T00:31:56;10.52;83.81
68026;SHT31;54819;48.030;14.710;2022-11-04T00:34:42;10.54;83.90
68026;SHT31;54819;48.030;14.710;2022-11-04T00:37:09;10.56;83.89
68026;SHT31;54819;48.030;14.710;2022-11-04T00:39:36;10.57;83.79
68026;SHT31;54819;48.030;14.710;2022-11-04T00:42:03;10.57;83.71
68026;SHT31;54819;48.030;14.710;2022-11-04T00:44:31;10.58;83.69
68026;SHT31;54819;48.030;14.710;2022-11-04T00:46:58;10.58;83.63
68026;SHT31;54819;48.030;14.710;2022-11-04T00:49:24;10.60;83.76
68026;SHT31;54819;48.030;14.710;2022-11-04T00:51:51;10.62;83.86
68026;SHT31;54819;48.030;14.710;2022-11-04T00:54:18;10.63;83.91
68026;SHT31;54819;48.030;14.710;2022-11-04T00:56:45;10.66;84.00
68026;SHT31;54819;48.030;14.710;2022-11-04T00:59:13;10.67;83.95
68026;SHT31;54819;48.030;14.710;2022-11-04T01:01:41;10.71;83.92
68026;SHT31;54819;48.030;14.710;2022-11-04T01:04:08;10.71;83.89
68026;SHT31;54819;48.030;14.710;2022-11-04T01:06:35;10.72;83.78
68026;SHT31;54819;48.030;14.710;2022-11-04T01:09:04;10.72;83.74
68026;SHT31;54819;48.030;14.710;2022-11-04T01:11:34;10.73;83.81
68026;SHT31;54819;48.030;14.710;2022-11-04T01:14:01;10.73;83.89
68026;SHT31;54819;48.030;14.710;2022-11-04T01:16:28;10.73;84.01
68026;SHT31;54819;48.030;14.710;2022-11-04T01:18:55;10.77;84.03
68026;SHT31;54819;48.030;14.710;2022-11-04T01:21:23;10.80;84.09
68026;SHT31;54819;48.030;14.710;2022-11-04T01:23:50;10.81;84.09
68026;SHT31;54819;48.030;14.710;2022-11-04T01:26:18;10.84;84.02
68026;SHT31;54819;48.030;14.710;2022-11-04T01:28:50;10.84;83.93
68026;SHT31;54819;48.030;14.710;2022-11-04T01:31:21;10.82;83.87
68026;SHT31;54819;48.030;14.710;2022-11-04T01:33:53;10.81;83.79
68026;SHT31;54819;48.030;14.710;2022-11-04T01:36:22;10.81;83.90
68026;SHT31;54819;48.030;14.710;2022-11-04T01:38:50;10.81;84.01
68026;SHT31;54819;48.030;14.710;2022-11-04T01:41:22;10.84;84.10
68026;SHT31;54819;48.030;14.710;2022-11-04T01:43:57;10.85;84.20
68026;SHT31;54819;48.030;14.710;2022-11-04T01:46:45;10.81;84.20
68026;SHT31;54819;48.030;14.710;2022-11-04T01:49:23;10.83;84.08
68026;SHT31;54819;48.030;14.710;2022-11-04T01:52:00;10.83;84.16
68026;SHT31;54819;48.030;14.710;2022-11-04T01:54:30;10.80;84.19
68026;SHT31;54819;48.030;14.710;2022-11-04T01:57:00;10.81;84.22
68026;SHT31;54819;48.030;14.710;2022-11-04T01:59:33;10.82;84.28
68026;SHT31;54819;48.030;14.710;2022-11-04T02:02:05;10.85;84.35
68026;SHT31;54819;48.030;14.710;2022-11-04T02:04:33;10.86;84.48
68026;SHT31;54819;48.030;14.710;2022-11-04T02:07:02;10.85;84.50
68026;SHT31;54819;48.030;14.710;2022-11-04T02:09:33;10.84;84.57
68026;SHT31;54819;48.030;14.710;2022-11-04T02:12:03;10.84;84.43
68026;SHT31;54819;48.030;14.710;2022-11-04T02:14:50;10.88;84.22
68026;SHT31;54819;48.030;14.710;2022-11-04T02:26:26;10.97;84.57
68026;SHT31;54819;48.030;14.710;2022-11-04T02:43:20;11.04;85.69
68026;SHT31;54819;48.030;14.710;2022-11-04T02:49:01;11.16;85.90
68026;SHT31;54819;48.030;14.710;2022-11-04T02:57:20;11.35;85.50
68026;SHT31;54819;48.030;14.710;2022-11-04T03:00:01;11.37;85.00
68026;SHT31;54819;48.030;14.710;2022-11-04T03:03:37;11.45;84.36
68026;SHT31;54819;48.030;14.710;2022-11-04T03:05:43;11.60;83.71
68026;SHT31;54819;48.030;14.710;2022-11-04T03:08:18;11.71;83.31
68026;SHT31;54819;48.030;14.710;2022-11-04T03:11:06;11.79;83.27
68026;SHT31;54819;48.030;14.710;2022-11-04T03:13:47;11.88;82.83
68026;SHT31;54819;48.030;14.710;2022-11-04T03:16:18;11.95;82.78
68026;SHT31;54819;48.030;14.710;2022-11-04T03:19:07;12.03;82.57
68026;SHT31;54819;48.030;14.710;2022-11-04T03:21:48;12.08;82.22
68026;SHT31;54819;48.030;14.710;2022-11-04T03:24:23;12.11;82.28
68026;SHT31;54819;48.030;14.710;2022-11-04T03:26:57;12.15;82.32
68026;SHT31;54819;48.030;14.710;2022-11-04T03:29:36;12.19;82.59
68026;SHT31;54819;48.030;14.710;2022-11-04T03:34:50;12.26;82.41
68026;SHT31;54819;48.030;14.710;2022-11-04T03:37:17;12.31;82.38
68026;SHT31;54819;48.030;14.710;2022-11-04T03:39:45;12.30;82.75
68026;SHT31;54819;48.030;14.710;2022-11-04T03:42:12;12.28;83.12
68026;SHT31;54819;48.030;14.710;2022-11-04T03:44:54;12.24;83.50
68026;SHT31;54819;48.030;14.710;2022-11-04T03:47:23;12.22;83.72
68026;SHT31;54819;48.030;14.710;2022-11-04T03:50:00;12.20;84.07
68026;SHT31;54819;48.030;14.710;2022-11-04T03:52:35;12.17;84.01
68026;SHT31;54819;48.030;14.710;2022-11-04T03:55:02;12.13;84.30
68026;SHT31;54819;48.030;14.710;2022-11-04T03:57:51;12.11;84.36
68026;SHT31;54819;48.030;14.710;2022-11-04T04:00:28;12.11;84.31
68026;SHT31;54819;48.030;14.710;2022-11-04T04:05:48;12.05;84.36
68026;SHT31;54819;48.030;14.710;2022-11-04T04:20:18;11.95;85.88
68026;SHT31;54819;48.030;14.710;2022-11-04T04:22:58;11.97;85.68
68026;SHT31;54819;48.030;14.710;2022-11-04T04:25:26;11.97;85.80
68026;SHT31;54819;48.030;14.710;2022-11-04T04:28:16;11.94;85.83
68026;SHT31;54819;48.030;14.710;2022-11-04T04:30:45;11.92;85.79
68026;SHT31;54819;48.030;14.710;2022-11-04T04:33:14;11.88;85.81
68026;SHT31;54819;48.030;14.710;2022-11-04T04:35:45;11.88;85.96
68026;SHT31;54819;48.030;14.710;2022-11-04T04:38:27;11.87;85.90
68026;SHT31;54819;48.030;14.710;2022-11-04T04:44:19;11.86;85.99
68026;SHT31;54819;48.030;14.710;2022-11-04T04:47:12;11.84;86.05
68026;SHT31;54819;48.030;14.710;2022-11-04T04:49:55;11.85;86.07
68026;SHT31;54819;48.030;14.710;2022-11-04T04:52:28;11.84;85.97
68026;SHT31;54819;48.030;14.710;2022-11-04T04:55:04;11.81;85.67
68026;SHT31;54819;48.030;14.710;2022-11-04T04:57:33;11.78;85.77
68026;SHT31;54819;48.030;14.710;2022-11-04T05:00:00;11.78;85.74
68026;SHT31;54819;48.030;14.710;2022-11-04T05:02:27;11.77;85.77
68026;SHT31;54819;48.030;14.710;2022-11-04T05:04:54;11.76;85.69
68026;SHT31;54819;48.030;14.710;2022-11-04T05:07:21;11.73;85.61
68026;SHT31;54819;48.030;14.710;2022-11-04T05:09:48;11.73;85.77
68026;SHT31;54819;48.030;14.710;2022-11-04T05:12:15;11.70;85.92
68026;SHT31;54819;48.030;14.710;2022-11-04T05:14:43;11.69;85.75
68026;SHT31;54819;48.030;14.710;2022-11-04T05:17:09;11.67;85.80
68026;SHT31;54819;48.030;14.710;2022-11-04T05:19:36;11.65;85.67
68026;SHT31;54819;48.030;14.710;2022-11-04T05:22:03;11.60;85.57
68026;SHT31;54819;48.030;14.710;2022-11-04T05:24:30;11.53;85.90
68026;SHT31;54819;48.030;14.710;2022-11-04T05:26:57;11.53;85.60
68026;SHT31;54819;48.030;14.710;2022-11-04T05:29:24;11.50;85.40
68026;SHT31;54819;48.030;14.710;2022-11-04T05:31:51;11.49;85.36
68026;SHT31;54819;48.030;14.710;2022-11-04T05:34:18;11.50;85.11
68026;SHT31;54819;48.030;14.710;2022-11-04T05:36:44;11.48;85.10
68026;SHT31;54819;48.030;14.710;2022-11-04T05:39:12;11.45;85.22
68026;SHT31;54819;48.030;14.710;2022-11-04T05:41:39;11.43;85.27
68026;SHT31;54819;48.030;14.710;2022-11-04T05:44:07;11.41;85.44
68026;SHT31;54819;48.030;14.710;2022-11-04T05:46:35;11.40;85.32
68026;SHT31;54819;48.030;14.710;2022-11-04T05:49:02;11.38;85.43
68026;SHT31;54819;48.030;14.710;2022-11-04T05:51:30;11.38;85.51
68026;SHT31;54819;48.030;14.710;2022-11-04T05:53:57;11.38;85.42
68026;SHT31;54819;48.030;14.710;2022-11-04T05:56:24;11.39;85.28
68026;SHT31;54819;48.030;14.710;2022-11-04T05:58:51;11.38;85.29
68026;SHT31;54819;48.030;14.710;2022-11-04T06:04:03;11.34;85.38
68026;SHT31;54819;48.030;14.710;2022-11-04T06:06:33;11.34;85.34
68026;SHT31;54819;48.030;14.710;2022-11-04T06:09:02;11.33;85.49
68026;SHT31;54819;48.030;14.710;2022-11-04T06:11:29;11.33;85.71
68026;SHT31;54819;48.030;14.710;2022-11-04T06:13:58;11.34;85.56
68026;SHT31;54819;48.030;14.710;2022-11-04T06:16:26;11.36;85.59
68026;SHT31;54819;48.030;14.710;2022-11-04T06:18:53;11.35;85.42
68026;SHT31;54819;48.030;14.710;2022-11-04T06:21:30;11.33;85.34
68026;SHT31;54819;48.030;14.710;2022-11-04T06:23:58;11.31;85.03
68026;SHT31;54819;48.030;14.710;2022-11-04T06:26:26;11.30;85.22
68026;SHT31;54819;48.030;14.710;2022-11-04T06:28:56;11.28;85.40
68026;SHT31;54819;48.030;14.710;2022-11-04T06:31:23;11.27;85.42
68026;SHT31;54819;48.030;14.710;2022-11-04T06:33:50;11.29;85.48
68026;SHT31;54819;48.030;14.710;2022-11-04T06:36:17;11.28;85.58
68026;SHT31;54819;48.030;14.710;2022-11-04T06:38:44;11.28;85.66
68026;SHT31;54819;48.030;14.710;2022-11-04T06:41:12;11.28;85.53
68026;SHT31;54819;48.030;14.710;2022-11-04T06:43:42;11.29;85.55
68026;SHT31;54819;48.030;14.710;2022-11-04T06:49:08;11.27;85.54
68026;SHT31;54819;48.030;14.710;2022-11-04T06:51:40;11.26;85.49
68026;SHT31;54819;48.030;14.710;2022-11-04T06:54:07;11.26;85.64
68026;SHT31;54819;48.030;14.710;2022-11-04T06:56:34;11.25;85.61
68026;SHT31;54819;48.030;14.710;2022-11-04T06:59:01;11.27;85.67
68026;SHT31;54819;48.030;14.710;2022-11-04T07:01:30;11.29;85.63
68026;SHT31;54819;48.030;14.710;2022-11-04T07:04:01;11.30;85.54
68026;SHT31;54819;48.030;14.710;2022-11-04T07:06:30;11.31;85.64
68026;SHT31;54819;48.030;14.710;2022-11-04T07:09:00;11.29;85.59
68026;SHT31;54819;48.030;14.710;2022-11-04T07:11:30;11.26;85.46
68026;SHT31;54819;48.030;14.710;2022-11-04T07:13:58;11.24;85.55
68026;SHT31;54819;48.030;14.710;2022-11-04T07:16:25;11.25;85.60
68026;SHT31;54819;48.030;14.710;2022-11-04T07:18:53;11.26;85.54
68026;SHT31;54819;48.030;14.710;2022-11-04T07:21:21;11.27;85.63
68026;SHT31;54819;48.030;14.710;2022-11-04T07:23:48;11.25;85.63
68026;SHT31;54819;48.030;14.710;2022-11-04T07:26:15;11.24;85.34
68026;SHT31;54819;48.030;14.710;2022-11-04T07:28:42;11.22;85.30
68026;SHT31;54819;48.030;14.710;2022-11-04T07:31:10;11.20;85.26
68026;SHT31;54819;48.030;14.710;2022-11-04T07:33:38;11.19;85.26
68026;SHT31;54819;48.030;14.710;2022-11-04T07:36:07;11.21;85.08
68026;SHT31;54819;48.030;14.710;2022-11-04T07:38:38;11.22;85.03
68026;SHT31;54819;48.030;14.710;2022-11-04T07:41:05;11.23;84.90
68026;SHT31;54819;48.030;14.710;2022-11-04T07:43:32;11.29;85.09
68026;SHT31;54819;48.030;14.710;2022-11-04T07:46:02;11.31;84.91
68026;SHT31;54819;48.030;14.710;2022-11-04T07:48:36;11.30;84.71
68026;SHT31;54819;48.030;14.710;2022-11-04T07:51:04;11.28;84.76
68026;SHT31;54819;48.030;14.710;2022-11-04T07:53:34;11.28;84.64
68026;SHT31;54819;48.030;14.710;2022-11-04T07:56:02;11.27;84.59
68026;SHT31;54819;48.030;14.710;2022-11-04T07:58:33;11.31;84.57
68026;SHT31;54819;48.030;14.710;2022-11-04T08:01:01;11.34;84.55
68026;SHT31;54819;48.030;14.710;2022-11-04T08:03:30;11.36;84.61
68026;SHT31;54819;48.030;14.710;2022-11-04T08:05:59;11.35;84.38
68026;SHT31;54819;48.030;14.710;2022-11-04T08:08:29;11.34;83.79
68026;SHT31;54819;48.030;14.710;2022-11-04T08:10:58;11.34;84.02
68026;SHT31;54819;48.030;14.710;2022-11-04T08:13:29;11.33;84.02
68026;SHT31;54819;48.030;14.710;2022-11-04T08:16:02;11.32;83.82
68026;SHT31;54819;48.030;14.710;2022-11-04T08:18:38;11.35;84.03
68026;SHT31;54819;48.030;14.710;2022-11-04T08:21:07;11.38;84.23
68026;SHT31;54819;48.030;14.710;2022-11-04T08:23:36;11.38;84.17
68026;SHT31;54819;48.030;14.710;2022-11-04T08:26:10;11.36;84.13
68026;SHT31;54819;48.030;14.710;2022-11-04T08:28:42;11.40;84.42
68026;SHT31;54819;48.030;14.710;2022-11-04T08:31:13;11.41;84.37
68026;SHT31;54819;48.030;14.710;2022-11-04T08:33:44;11.40;84.08
68026;SHT31;54819;48.030;14.710;2022-11-04T08:36:31;11.36;83.86
68026;SHT31;54819;48.030;14.710;2022-11-04T08:39:06;11.29;83.53
68026;SHT31;54819;48.030;14.710;2022-11-04T08:41:37;11.27;83.68
68026;SHT31;54819;48.030;14.710;2022-11-04T08:44:07;11.22;83.87
68026;SHT31;54819;48.030;14.710;2022-11-04T08:46:37;11.15;83.75
68026;SHT31;54819;48.030;14.710;2022-11-04T08:49:07;11.10;83.57
68026;SHT31;54819;48.030;14.710;2022-11-04T08:51:38;11.09;83.84
68026;SHT31;54819;48.030;14.710;2022-11-04T08:54:09;11.04;83.74
68026;SHT31;54819;48.030;14.710;2022-11-04T08:56:37;11.00;83.95
68026;SHT31;54819;48.030;14.710;2022-11-04T08:59:06;10.97;84.03
68026;SHT31;54819;48.030;14.710;2022-11-04T09:01:34;10.93;84.16
68026;SHT31;54819;48.030;14.710;2022-11-04T09:04:03;10.91;84.29
68026;SHT31;54819;48.030;14.710;2022-11-04T09:06:34;10.88;84.48
68026;SHT31;54819;48.030;14.710;2022-11-04T09:09:04;10.89;84.66
68026;SHT31;54819;48.030;14.710;2022-11-04T09:11:36;10.88;84.76
68026;SHT31;54819;48.030;14.710;2022-11-04T09:14:06;10.87;84.74
68026;SHT31;54819;48.030;14.710;2022-11-04T09:16:34;10.83;84.30
68026;SHT31;54819;48.030;14.710;2022-11-04T09:19:02;10.80;84.46
68026;SHT31;54819;48.030;14.710;2022-11-04T09:21:30;10.78;84.41
68026;SHT31;54819;48.030;14.710;2022-11-04T09:23:57;10.75;84.54
68026;SHT31;54819;48.030;14.710;2022-11-04T09:26:24;10.77;84.60
68026;SHT31;54819;48.030;14.710;2022-11-04T09:28:53;10.80;84.59
68026;SHT31;54819;48.030;14.710;2022-11-04T09:31:21;10.80;84.53
68026;SHT31;54819;48.030;14.710;2022-11-04T09:33:49;10.77;84.48
68026;SHT31;54819;48.030;14.710;2022-11-04T09:36:17;10.81;84.57
68026;SHT31;54819;48.030;14.710;2022-11-04T09:38:44;10.84;84.36
68026;SHT31;54819;48.030;14.710;2022-11-04T09:47:41;10.80;84.17
68026;SHT31;54819;48.030;14.710;2022-11-04T09:50:15;10.80;84.43
68026;SHT31;54819;48.030;14.710;2022-11-04T09:53:11;10.80;84.57
68026;SHT31;54819;48.030;14.710;2022-11-04T09:58:20;10.77;84.41
68026;SHT31;54819;48.030;14.710;2022-11-04T10:00:50;10.78;84.52
68026;SHT31;54819;48.030;14.710;2022-11-04T10:15:55;10.62;84.28
68026;SHT31;54819;48.030;14.710;2022-11-04T10:18:40;10.55;84.10
68026;SHT31;54819;48.030;14.710;2022-11-04T10:21:43;10.52;84.07
68026;SHT31;54819;48.030;14.710;2022-11-04T10:24:47;10.48;83.72
68026;SHT31;54819;48.030;14.710;2022-11-04T10:27:34;10.48;83.75
68026;SHT31;54819;48.030;14.710;2022-11-04T10:30:11;10.49;83.80
68026;SHT31;54819;48.030;14.710;2022-11-04T10:35:47;10.48;83.86
68026;SHT31;54819;48.030;14.710;2022-11-04T10:41:01;10.41;83.50
68026;SHT31;54819;48.030;14.710;2022-11-04T10:52:34;10.24;83.09
68026;SHT31;54819;48.030;14.710;2022-11-04T10:55:14;10.28;83.15
68026;SHT31;54819;48.030;14.710;2022-11-04T10:57:46;10.28;83.06
68026;SHT31;54819;48.030;14.710;2022-11-04T11:03:24;10.35;83.66
68026;SHT31;54819;48.030;14.710;2022-11-04T11:06:14;10.34;83.63
68026;SHT31;54819;48.030;14.710;2022-11-04T11:08:54;10.34;83.51
68026;SHT31;54819;48.030;14.710;2022-11-04T11:11:45;10.31;83.56
68026;SHT31;54819;48.030;14.710;2022-11-04T11:16:46;10.27;83.28
68026;SHT31;54819;48.030;14.710;2022-11-04T11:19:14;10.20;83.10
68026;SHT31;54819;48.030;14.710;2022-11-04T11:21:47;10.15;83.15
68026;SHT31;54819;48.030;14.710;2022-11-04T11:24:21;10.12;83.35
68026;SHT31;54819;48.030;14.710;2022-11-04T11:26:56;10.08;83.42
68026;SHT31;54819;48.030;14.710;2022-11-04T11:29:27;10.03;83.51
68026;SHT31;54819;48.030;14.710;2022-11-04T11:32:06;10.01;83.60
68026;SHT31;54819;48.030;14.710;2022-11-04T11:34:57;9.97;83.30
68026;SHT31;54819;48.030;14.710;2022-11-04T11:37:31;9.90;83.07
68026;SHT31;54819;48.030;14.710;2022-11-04T11:39:59;9.84;83.22
68026;SHT31;54819;48.030;14.710;2022-11-04T11:42:26;9.80;83.47
68026;SHT31;54819;48.030;14.710;2022-11-04T11:44:53;9.74;83.47
68026;SHT31;54819;48.030;14.710;2022-11-04T11:52:46;9.61;83.69
68026;SHT31;54819;48.030;14.710;2022-11-04T11:55:25;9.54;83.84
68026;SHT31;54819;48.030;14.710;2022-11-04T12:01:05;9.33;84.07
68026;SHT31;54819;48.030;14.710;2022-11-04T12:03:49;9.30;84.22
68026;SHT31;54819;48.030;14.710;2022-11-04T12:06:46;9.27;84.06
68026;SHT31;54819;48.030;14.710;2022-11-04T12:18:59;9.10;83.77
68026;SHT31;54819;48.030;14.710;2022-11-04T12:22:05;9.05;83.49
68026;SHT31;54819;48.030;14.710;2022-11-04T12:47:47;8.63;83.85
68026;SHT31;54819;48.030;14.710;2022-11-04T12:50:51;8.58;83.70
68026;SHT31;54819;48.030;14.710;2022-11-04T12:53:25;8.52;83.74
68026;SHT31;54819;48.030;14.710;2022-11-04T12:56:01;8.45;84.14
68026;SHT31;54819;48.030;14.710;2022-11-04T13:02:15;8.38;84.30
68026;SHT31;54819;48.030;14.710;2022-11-04T13:04:55;8.36;84.40
68026;SHT31;54819;48.030;14.710;2022-11-04T13:07:32;8.34;84.20
68026;SHT31;54819;48.030;14.710;2022-11-04T13:10:32;8.27;84.27
68026;SHT31;54819;48.030;14.710;2022-11-04T13:13:11;8.15;84.69
68026;SHT31;54819;48.030;14.710;2022-11-04T13:15:47;8.14;84.60
68026;SHT31;54819;48.030;14.710;2022-11-04T13:18:20;8.09;84.56
68026;SHT31;54819;48.030;14.710;2022-11-04T13:20:57;8.06;84.46
68026;SHT31;54819;48.030;14.710;2022-11-04T13:26:31;7.88;83.26
68026;SHT31;54819;48.030;14.710;2022-11-04T13:29:00;7.72;83.20
68026;SHT31;54819;48.030;14.710;2022-11-04T13:31:45;7.61;83.17
68026;SHT31;54819;48.030;14.710;2022-11-04T13:37:27;7.33;83.00
68026;SHT31;54819;48.030;14.710;2022-11-04T13:40:13;7.20;82.70
68026;SHT31;54819;48.030;14.710;2022-11-04T13:42:50;7.11;83.28
68026;SHT31;54819;48.030;14.710;2022-11-04T13:46:01;7.02;83.77
68026;SHT31;54819;48.030;14.710;2022-11-04T13:48:30;6.96;83.57
68026;SHT31;54819;48.030;14.710;2022-11-04T13:51:01;6.91;83.75
68026;SHT31;54819;48.030;14.710;2022-11-04T13:53:43;6.86;83.67
68026;SHT31;54819;48.030;14.710;2022-11-04T13:56:24;6.80;83.48
68026;SHT31;54819;48.030;14.710;2022-11-04T13:59:03;6.71;83.49
68026;SHT31;54819;48.030;14.710;2022-11-04T14:04:45;6.64;84.11
68026;SHT31;54819;48.030;14.710;2022-11-04T14:07:16;6.66;84.28
68026;SHT31;54819;48.030;14.710;2022-11-04T14:09:51;6.66;84.32
68026;SHT31;54819;48.030;14.710;2022-11-04T14:12:27;6.68;84.16
68026;SHT31;54819;48.030;14.710;2022-11-04T14:15:08;6.68;84.25
68026;SHT31;54819;48.030;14.710;2022-11-04T14:20:21;6.79;84.39
68026;SHT31;54819;48.030;14.710;2022-11-04T14:22:56;6.85;84.46
68026;SHT31;54819;48.030;14.710;2022-11-04T14:28:24;6.96;84.48
68026;SHT31;54819;48.030;14.710;2022-11-04T14:30:56;7.03;84.47
68026;SHT31;54819;48.030;14.710;2022-11-04T14:36:16;7.13;84.46
68026;SHT31;54819;48.030;14.710;2022-11-04T14:46:39;7.20;84.28
68026;SHT31;54819;48.030;14.710;2022-11-04T14:49:28;7.20;84.20
68026;SHT31;54819;48.030;14.710;2022-11-04T14:52:14;7.25;84.37
68026;SHT31;54819;48.030;14.710;2022-11-04T14:54:41;7.25;84.26
68026;SHT31;54819;48.030;14.710;2022-11-04T14:57:12;7.30;84.51
68026;SHT31;54819;48.030;14.710;2022-11-04T14:59:41;7.33;84.63
68026;SHT31;54819;48.030;14.710;2022-11-04T15:02:14;7.34;84.64
68026;SHT31;54819;48.030;14.710;2022-11-04T15:04:49;7.38;84.64
68026;SHT31;54819;48.030;14.710;2022-11-04T15:07:37;7.38;84.63
68026;SHT31;54819;48.030;14.710;2022-11-04T15:13:01;7.35;84.70
68026;SHT31;54819;48.030;14.710;2022-11-04T15:18:06;7.37;84.65
68026;SHT31;54819;48.030;14.710;2022-11-04T15:20:53;7.37;84.81
68026;SHT31;54819;48.030;14.710;2022-11-04T15:23:33;7.38;84.89
68026;SHT31;54819;48.030;14.710;2022-11-04T15:28:58;7.41;84.71
68026;SHT31;54819;48.030;14.710;2022-11-04T15:31:30;7.46;84.82
68026;SHT31;54819;48.030;14.710;2022-11-04T15:34:00;7.46;84.88
68026;SHT31;54819;48.030;14.710;2022-11-04T15:36:38;7.46;84.59
68026;SHT31;54819;48.030;14.710;2022-11-04T15:39:25;7.46;84.23
68026;SHT31;54819;48.030;14.710;2022-11-04T15:41:57;7.46;84.33
68026;SHT31;54819;48.030;14.710;2022-11-04T15:44:48;7.49;84.42
68026;SHT31;54819;48.030;14.710;2022-11-04T15:49:49;7.53;84.59
68026;SHT31;54819;48.030;14.710;2022-11-04T15:52:25;7.56;84.53
68026;SHT31;54819;48.030;14.710;2022-11-04T15:54:57;7.57;84.35
68026;SHT31;54819;48.030;14.710;2022-11-04T16:00:05;7.59;84.25
68026;SHT31;54819;48.030;14.710;2022-11-04T16:02:49;7.60;84.19
68026;SHT31;54819;48.030;14.710;2022-11-04T16:11:07;7.60;84.13
68026;SHT31;54819;48.030;14.710;2022-11-04T16:13:41;7.64;84.30
68026;SHT31;54819;48.030;14.710;2022-11-04T16:18:41;7.64;84.26
68026;SHT31;54819;48.030;14.710;2022-11-04T16:21:36;7.68;84.12
68026;SHT31;54819;48.030;14.710;2022-11-04T16:24:07;7.70;84.17
68026;SHT31;54819;48.030;14.710;2022-11-04T16:26:49;7.70;83.97
68026;SHT31;54819;48.030;14.710;2022-11-04T16:29:25;7.71;83.81
68026;SHT31;54819;48.030;14.710;2022-11-04T16:34:34;7.73;83.85
68026;SHT31;54819;48.030;14.710;2022-11-04T16:37:01;7.78;83.89
68026;SHT31;54819;48.030;14.710;2022-11-04T16:39:28;7.78;83.41
68026;SHT31;54819;48.030;14.710;2022-11-04T16:41:55;7.82;83.60
68026;SHT31;54819;48.030;14.710;2022-11-04T16:44:23;7.84;83.67
68026;SHT31;54819;48.030;14.710;2022-11-04T16:46:51;7.84;83.47
68026;SHT31;54819;48.030;14.710;2022-11-04T16:49:21;7.85;83.41
68026;SHT31;54819;48.030;14.710;2022-11-04T16:51:50;7.83;83.45
68026;SHT31;54819;48.030;14.710;2022-11-04T16:54:21;7.84;83.09
68026;SHT31;54819;48.030;14.710;2022-11-04T16:56:50;7.84;83.23
68026;SHT31;54819;48.030;14.710;2022-11-04T16:59:17;7.87;83.22
68026;SHT31;54819;48.030;14.710;2022-11-04T17:01:43;7.88;82.91
68026;SHT31;54819;48.030;14.710;2022-11-04T17:04:10;7.92;82.99
68026;SHT31;54819;48.030;14.710;2022-11-04T17:06:38;7.94;83.10
68026;SHT31;54819;48.030;14.710;2022-11-04T17:09:09;7.95;82.83
68026;SHT31;54819;48.030;14.710;2022-11-04T17:11:47;7.95;83.03
68026;SHT31;54819;48.030;14.710;2022-11-04T17:14:15;7.95;82.75
68026;SHT31;54819;48.030;14.710;2022-11-04T17:16:42;7.96;82.68
68026;SHT31;54819;48.030;14.710;2022-11-04T17:19:13;7.98;83.04
68026;SHT31;54819;48.030;14.710;2022-11-04T17:21:42;8.01;82.84
68026;SHT31;54819;48.030;14.710;2022-11-04T17:24:11;8.02;82.61
68026;SHT31;54819;48.030;14.710;2022-11-04T17:26:39;8.04;82.41
68026;SHT31;54819;48.030;14.710;2022-11-04T17:29:06;8.05;82.29
68026;SHT31;54819;48.030;14.710;2022-11-04T17:31:42;8.07;82.33
68026;SHT31;54819;48.030;14.710;2022-11-04T17:34:09;8.08;82.40
68026;SHT31;54819;48.030;14.710;2022-11-04T17:36:37;8.09;82.35
68026;SHT31;54819;48.030;14.710;2022-11-04T17:39:04;8.12;82.43
68026;SHT31;54819;48.030;14.710;2022-11-04T17:41:31;8.13;82.32
68026;SHT31;54819;48.030;14.710;2022-11-04T17:44:17;8.15;82.21
68026;SHT31;54819;48.030;14.710;2022-11-04T17:46:44;8.17;82.19
68026;SHT31;54819;48.030;14.710;2022-11-04T17:49:14;8.18;82.04
68026;SHT31;54819;48.030;14.710;2022-11-04T17:51:48;8.17;81.74
68026;SHT31;54819;48.030;14.710;2022-11-04T17:54:21;8.15;81.79
68026;SHT31;54819;48.030;14.710;2022-11-04T17:56:52;8.18;82.09
68026;SHT31;54819;48.030;14.710;2022-11-04T17:59:19;8.22;82.11
68026;SHT31;54819;48.030;14.710;2022-11-04T18:01:46;8.23;82.28
68026;SHT31;54819;48.030;14.710;2022-11-04T18:04:14;8.23;82.21
68026;SHT31;54819;48.030;14.710;2022-11-04T18:06:45;8.24;82.20
68026;SHT31;54819;48.030;14.710;2022-11-04T18:09:13;8.25;82.22
68026;SHT31;54819;48.030;14.710;2022-11-04T18:11:41;8.26;82.41
68026;SHT31;54819;48.030;14.710;2022-11-04T18:14:29;8.24;81.98
68026;SHT31;54819;48.030;14.710;2022-11-04T18:16:56;8.23;82.36
68026;SHT31;54819;48.030;14.710;2022-11-04T18:19:24;8.23;82.23
68026;SHT31;54819;48.030;14.710;2022-11-04T18:21:51;8.22;82.33
68026;SHT31;54819;48.030;14.710;2022-11-04T18:24:19;8.23;82.20
68026;SHT31;54819;48.030;14.710;2022-11-04T18:26:46;8.27;82.38
68026;SHT31;54819;48.030;14.710;2022-11-04T18:29:13;8.27;82.44
68026;SHT31;54819;48.030;14.710;2022-11-04T18:31:41;8.30;82.35
68026;SHT31;54819;48.030;14.710;2022-11-04T18:34:15;8.32;82.27
68026;SHT31;54819;48.030;14.710;2022-11-04T18:36:45;8.31;82.25
68026;SHT31;54819;48.030;14.710;2022-11-04T18:39:14;8.34;82.41
68026;SHT31;54819;48.030;14.710;2022-11-04T18:41:44;8.30;82.50
68026;SHT31;54819;48.030;14.710;2022-11-04T18:44:13;8.32;82.59
68026;SHT31;54819;48.030;14.710;2022-11-04T18:46:46;8.34;82.70
68026;SHT31;54819;48.030;14.710;2022-11-04T18:49:14;8.36;82.79
68026;SHT31;54819;48.030;14.710;2022-11-04T18:51:42;8.36;82.76
68026;SHT31;54819;48.030;14.710;2022-11-04T18:54:09;8.36;82.56
68026;SHT31;54819;48.030;14.710;2022-11-04T18:56:37;8.36;82.58
68026;SHT31;54819;48.030;14.710;2022-11-04T18:59:07;8.35;82.38
68026;SHT31;54819;48.030;14.710;2022-11-04T19:01:38;8.33;82.35
68026;SHT31;54819;48.030;14.710;2022-11-04T19:04:05;8.32;82.29
68026;SHT31;54819;48.030;14.710;2022-11-04T19:06:34;8.32;82.27
68026;SHT31;54819;48.030;14.710;2022-11-04T19:09:07;8.35;82.23
68026;SHT31;54819;48.030;14.710;2022-11-04T19:11:56;8.38;82.39